Time;durP1;ratioP1;P1;durP2;ratioP2;P2;SDS_P1;SDS_P2;PMS_P1;PMS_P2;Temp;Humidity;BMP_temperature;BMP_pressure;BME280_temperature;BME280_humidity;BME280_pressure;Samples;Min_cycle;Max_cycle;Signal;HPM_P1;HPM_P2
2022/09/16 00:01:23;;;;;;;2.00;0.75;;;;;;;16.35;68.92;93044.69;5090984;28;20027;-35
2022/09/16 00:03:53;;;;;;;0.60;0.60;;;;;;;16.29;68.88;93043.56;5090840;28;20059;-35
2022/09/16 00:06:20;;;;;;;0.30;0.30;;;;;;;16.17;69.45;93046.28;5090830;28;20031;-35
2022/09/16 00:08:46;;;;;;;0.10;0.10;;;;;;;16.14;69.58;93046.72;5090839;28;20028;-35
2022/09/16 00:11:12;;;;;;;0.15;0.15;;;;;;;16.13;69.09;93057.16;5090998;28;20034;-35
2022/09/16 00:13:37;;;;;;;0.20;0.20;;;;;;;16.25;68.55;93051.66;5090617;28;20103;-35
2022/09/16 00:16:06;;;;;;;0.85;0.85;;;;;;;16.28;68.67;93039.34;5090674;28;20032;-35
2022/09/16 00:18:32;;;;;;;0.63;0.63;;;;;;;16.31;68.17;93041.66;5090711;28;20051;-35
2022/09/16 00:20:57;;;;;;;1.10;0.50;;;;;;;16.05;69.10;93044.75;5090593;28;20467;-35
2022/09/16 00:23:23;;;;;;;1.67;1.58;;;;;;;16.11;68.78;93031.22;5090671;28;20523;-35
2022/09/16 00:25:54;;;;;;;1.20;1.20;;;;;;;15.94;69.65;93037.75;5090261;28;20032;-35
2022/09/16 00:28:21;;;;;;;0.38;0.38;;;;;;;15.64;70.07;93036.44;5090621;28;20024;-35
2022/09/16 00:30:47;;;;;;;0.20;0.20;;;;;;;15.60;70.16;93030.59;5090769;28;20020;-35
2022/09/16 00:33:13;;;;;;;0.68;0.68;;;;;;;15.71;70.08;93029.22;5090357;28;20483;-34
2022/09/16 00:35:38;;;;;;;0.20;0.20;;;;;;;15.68;70.63;93028.34;5090726;28;20051;-35
2022/09/16 00:38:04;;;;;;;4.03;1.38;;;;;;;15.47;70.40;93005.28;5090258;28;20044;-35
2022/09/16 00:40:29;;;;;;;0.52;0.52;;;;;;;15.73;70.13;93051.63;5090428;28;20028;-35
2022/09/16 00:42:55;;;;;;;0.30;0.30;;;;;;;15.68;69.97;93047.84;5090472;28;20028;-35
2022/09/16 00:45:22;;;;;;;0.28;0.28;;;;;;;15.74;70.04;93047.53;5090870;28;20027;-35
2022/09/16 00:48:02;;;;;;;1.05;1.05;;;;;;;15.58;70.62;93038.78;5072267;28;20553;-35
2022/09/16 00:50:37;;;;;;;0.50;0.50;;;;;;;15.62;70.15;93022.38;5072426;28;20415;-35
2022/09/16 00:53:03;;;;;;;1.10;0.88;;;;;;;15.59;70.95;93048.59;5090515;28;20016;-35
2022/09/16 00:55:32;;;;;;;1.27;1.17;;;;;;;15.60;70.34;93043.75;5072303;28;20478;-35
2022/09/16 00:58:03;;;;;;;0.45;0.30;;;;;;;15.67;70.25;93034.50;5072220;28;20502;-35
2022/09/16 01:00:29;;;;;;;0.45;0.45;;;;;;;15.57;70.64;93044.97;5072257;28;20031;-35
2022/09/16 01:02:54;;;;;;;0.25;0.25;;;;;;;15.35;71.66;93043.38;5090262;28;20027;-35
2022/09/16 01:05:25;;;;;;;1.08;1.05;;;;;;;15.23;71.20;92978.56;5090541;28;20020;-35
2022/09/16 01:07:53;;;;;;;1.60;1.50;;;;;;;15.59;71.12;93028.41;5072668;28;20032;-35
2022/09/16 01:10:21;;;;;;;0.20;0.20;;;;;;;15.57;70.46;93028.25;5090047;28;20495;-35
2022/09/16 01:12:50;;;;;;;0.60;0.60;;;;;;;15.62;70.13;93049.47;5072509;28;20419;-35
2022/09/16 01:15:16;;;;;;;0.32;0.32;;;;;;;15.38;70.13;93034.59;5090178;28;20111;-34
2022/09/16 01:18:20;;;;;;;0.30;0.30;;;;;;;15.44;70.77;93059.34;5072253;28;20026;-35
2022/09/16 01:20:57;;;;;;;0.20;0.20;;;;;;;15.41;71.03;93063.28;5021671;28;20036;-35
2022/09/16 01:23:25;;;;;;;0.60;0.60;;;;;;;15.40;71.41;93061.81;5090082;28;20051;-35
2022/09/16 01:26:19;;;;;;;0.30;0.30;;;;;;;15.47;70.97;93063.72;5089666;28;20024;-35
2022/09/16 01:29:27;;;;;;;0.45;0.45;;;;;;;15.39;71.27;93054.78;5090184;28;20388;-35
2022/09/16 01:32:10;;;;;;;0.30;0.30;;;;;;;15.51;70.02;93069.56;5090124;28;20392;-35
2022/09/16 01:34:47;;;;;;;0.40;0.40;;;;;;;15.41;70.21;93068.84;5090019;28;20424;-34
2022/09/16 01:37:27;;;;;;;0.68;0.68;;;;;;;15.28;70.92;93056.13;5089757;28;20048;-35
2022/09/16 01:39:59;;;;;;;0.30;0.30;;;;;;;15.24;70.99;93064.19;5089875;28;20048;-35
2022/09/16 01:42:31;;;;;;;1.55;1.17;;;;;;;15.27;71.64;93070.63;5089956;28;20024;-35
2022/09/16 01:45:16;;;;;;;0.70;0.70;;;;;;;15.14;71.59;93061.44;5073169;28;20035;-35
2022/09/16 01:48:08;;;;;;;0.68;0.68;;;;;;;15.13;71.23;93059.25;5093686;28;20031;-35
2022/09/16 01:50:44;;;;;;;0.57;0.57;;;;;;;15.17;71.26;93063.03;5075530;28;20019;-35
2022/09/16 01:53:31;;;;;;;0.20;0.20;;;;;;;15.19;70.55;93054.84;5075477;28;20125;-35
2022/09/16 01:56:05;;;;;;;0.98;0.98;;;;;;;15.06;71.03;93066.41;5093329;28;20020;-35
2022/09/16 01:59:03;;;;;;;0.65;0.65;;;;;;;15.16;70.64;93060.81;5093874;28;20044;-35
2022/09/16 02:01:52;;;;;;;0.30;0.30;;;;;;;15.11;71.11;93068.19;5093189;28;20068;-35
2022/09/16 02:04:22;;;;;;;0.70;0.70;;;;;;;14.98;71.72;93060.28;5092680;28;20423;-35
2022/09/16 02:06:48;;;;;;;0.30;0.30;;;;;;;14.97;71.48;93055.31;5074861;28;20495;-35
2022/09/16 02:09:20;;;;;;;2.00;1.02;;;;;;;14.95;72.17;93069.78;5075065;28;20531;-35
2022/09/16 02:11:46;;;;;;;0.35;0.35;;;;;;;14.99;71.59;93058.97;5075172;28;20039;-35
2022/09/16 02:14:15;;;;;;;0.98;0.98;;;;;;;15.06;71.57;93055.31;5075025;28;20434;-35
2022/09/16 02:16:46;;;;;;;3.40;1.00;;;;;;;15.02;72.36;93057.78;5075121;28;20024;-35
2022/09/16 02:19:14;;;;;;;1.05;1.00;;;;;;;14.90;72.60;93047.88;5092844;28;20979;-35
2022/09/16 02:21:40;;;;;;;0.30;0.30;;;;;;;15.00;72.55;93062.47;5093090;28;20054;-35
2022/09/16 02:24:10;;;;;;;0.93;0.77;;;;;;;15.04;72.46;93062.75;5092747;28;20629;-35
2022/09/16 02:26:40;;;;;;;0.57;0.50;;;;;;;15.07;72.00;93056.03;5074737;28;20016;-35
2022/09/16 02:29:13;;;;;;;4.03;2.45;;;;;;;15.08;71.75;93044.31;5074433;28;20027;-35
2022/09/16 02:31:40;;;;;;;2.75;1.13;;;;;;;15.14;71.73;93030.09;5075008;28;20338;-34
2022/09/16 02:34:10;;;;;;;0.32;0.32;;;;;;;15.13;71.62;93029.41;5074576;28;20024;-35
2022/09/16 02:36:38;;;;;;;0.30;0.30;;;;;;;15.16;71.59;93028.19;5074916;28;20081;-35
2022/09/16 02:39:08;;;;;;;0.82;0.82;;;;;;;14.91;71.42;93038.94;5092838;28;20064;-35
2022/09/16 02:41:34;;;;;;;0.63;0.63;;;;;;;15.01;70.62;93034.09;5074847;28;20467;-35
2022/09/16 02:44:01;;;;;;;0.38;0.38;;;;;;;14.89;71.24;93036.00;5074287;28;20103;-35
2022/09/16 02:46:39;;;;;;;0.75;0.43;;;;;;;14.90;71.23;93034.69;5092609;28;20297;-35
2022/09/16 02:49:22;;;;;;;0.45;0.45;;;;;;;14.93;71.41;93027.97;5092376;28;20416;-35
2022/09/16 02:52:12;;;;;;;1.58;1.48;;;;;;;14.86;71.55;93028.84;5074496;28;20055;-35
2022/09/16 02:55:12;;;;;;;0.40;0.40;;;;;;;14.96;71.13;93031.63;5072011;28;20035;-35
2022/09/16 02:57:38;;;;;;;0.30;0.30;;;;;;;14.88;71.44;93031.75;5054104;28;20028;-35
2022/09/16 03:00:05;;;;;;;0.43;0.43;;;;;;;14.86;71.76;93031.63;5071854;28;20028;-35
2022/09/16 03:02:34;;;;;;;0.57;0.57;;;;;;;14.70;72.46;93027.69;5073924;28;20040;-35
2022/09/16 03:04:59;;;;;;;1.27;0.93;;;;;;;14.77;72.42;93023.31;5074183;28;20469;-35
2022/09/16 03:07:25;;;;;;;0.52;0.52;;;;;;;14.67;72.77;93028.84;5091915;28;20075;-35
2022/09/16 03:09:51;;;;;;;8.88;1.67;;;;;;;14.75;72.68;93032.22;5073848;28;20028;-35
2022/09/16 03:12:42;;;;;;;5.82;4.05;;;;;;;14.49;73.35;93037.94;5091859;28;20024;-35
2022/09/16 03:15:31;;;;;;;0.90;0.90;;;;;;;14.58;73.37;93026.81;5073990;28;20047;-35
2022/09/16 03:18:31;;;;;;;10.65;2.08;;;;;;;14.75;72.92;93028.72;5091784;28;20028;-35
2022/09/16 03:21:16;;;;;;;5.25;1.83;;;;;;;14.78;72.56;93036.59;4989873;28;20034;-34
2022/09/16 03:23:56;;;;;;;2.05;1.83;;;;;;;14.67;72.95;93039.22;5066065;28;20028;-35
2022/09/16 03:26:35;;;;;;;1.45;1.35;;;;;;;14.77;72.71;93037.91;5073015;28;20120;-35
2022/09/16 03:29:00;;;;;;;;;;;;;;;14.79;72.60;93040.13;5073884;28;20415;-35
2022/09/16 03:31:30;;;;;;;1.42;1.00;;;;;;;14.74;72.90;93050.22;5091485;28;19908;-35
2022/09/16 03:34:08;;;;;;;1.58;1.48;;;;;;;14.89;72.53;93051.94;5073363;28;20028;-35
2022/09/16 03:36:38;;;;;;;0.60;0.60;;;;;;;14.95;72.81;93042.00;5073711;28;20097;-35
2022/09/16 03:39:04;;;;;;;2.38;2.22;;;;;;;14.94;72.80;93051.63;5073340;28;20047;-35
2022/09/16 03:41:31;;;;;;;0.43;0.43;;;;;;;14.98;72.75;93059.56;5073284;28;20028;-35
2022/09/16 03:43:57;;;;;;;2.08;1.95;;;;;;;15.06;72.48;93052.53;5073319;28;20020;-35
2022/09/16 03:46:25;;;;;;;0.98;0.88;;;;;;;15.01;72.40;93050.75;5091433;28;20028;-35
2022/09/16 03:48:51;;;;;;;1.30;1.30;;;;;;;15.09;72.52;93065.22;5091061;28;20487;-35
2022/09/16 03:51:16;;;;;;;0.60;0.60;;;;;;;15.13;71.85;93062.03;5091478;28;20039;-35
2022/09/16 03:53:41;;;;;;;8.15;2.30;;;;;;;15.11;72.47;93061.88;5091212;28;20103;-35
2022/09/16 03:56:07;;;;;;;2.90;1.80;;;;;;;15.16;72.53;93064.34;5091118;28;20028;-35
2022/09/16 03:58:32;;;;;;;1.65;1.55;;;;;;;15.19;71.87;93054.09;5090928;28;20016;-35
2022/09/16 04:00:58;;;;;;;0.80;0.80;;;;;;;15.24;71.43;93060.69;5091248;28;20117;-35
2022/09/16 04:03:23;;;;;;;3.10;2.38;;;;;;;15.22;71.60;93069.63;5091255;28;20384;-35
2022/09/16 04:05:53;;;;;;;2.85;2.03;;;;;;;15.19;71.31;93063.19;5090890;28;20028;-35
2022/09/16 04:08:19;;;;;;;0.25;0.25;;;;;;;15.28;71.33;93056.13;5072471;28;20567;-35
2022/09/16 04:10:55;;;;;;;0.80;0.80;;;;;;;15.24;72.20;93041.94;5090868;28;20035;-35
2022/09/16 04:13:21;;;;;;;2.90;2.70;;;;;;;15.18;72.26;93045.03;5090770;28;20061;-35
2022/09/16 04:15:46;;;;;;;2.72;2.47;;;;;;;15.15;72.67;93048.25;5091095;28;20028;-35
2022/09/16 04:18:12;;;;;;;1.75;1.23;;;;;;;15.10;72.50;93058.38;5090694;28;20487;-35
2022/09/16 04:20:37;;;;;;;20.67;2.67;;;;;;;14.94;72.51;93048.16;5090725;28;20500;-35
2022/09/16 04:23:03;;;;;;;0.98;0.82;;;;;;;15.01;72.52;93059.09;5090595;28;20397;-35
2022/09/16 04:25:29;;;;;;;1.70;1.60;;;;;;;15.08;72.19;93063.78;5090083;28;20174;-35
2022/09/16 04:27:54;;;;;;;0.40;0.40;;;;;;;15.01;72.85;93052.81;5090720;28;20035;-35
2022/09/16 04:30:20;;;;;;;3.67;2.78;;;;;;;14.94;73.23;93054.41;5090591;28;20487;-35
2022/09/16 04:32:45;;;;;;;0.60;0.60;;;;;;;14.90;73.44;93050.66;5072528;28;20077;-35
2022/09/16 04:35:10;;;;;;;2.53;2.38;;;;;;;14.98;72.91;93042.88;5072387;28;20031;-35
2022/09/16 04:37:36;;;;;;;1.33;1.08;;;;;;;15.04;72.66;93043.28;5090386;28;20044;-35
2022/09/16 04:40:01;;;;;;;3.92;3.63;;;;;;;14.99;72.51;93042.28;5090402;28;20073;-35
2022/09/16 04:42:27;;;;;;;6.95;3.53;;;;;;;14.98;72.45;93057.50;5090445;28;20047;-35
2022/09/16 04:44:52;;;;;;;3.80;3.10;;;;;;;15.04;72.11;93048.84;5090350;28;20032;-35
2022/09/16 04:47:18;;;;;;;0.70;0.70;;;;;;;15.10;72.02;93052.81;5072179;28;20039;-35
2022/09/16 04:49:43;;;;;;;2.45;2.25;;;;;;;15.09;72.27;93058.97;5090334;28;20027;-35
2022/09/16 04:52:09;;;;;;;2.20;2.10;;;;;;;15.17;72.07;93056.75;5090283;28;20426;-35
2022/09/16 04:54:35;;;;;;;5.28;1.42;;;;;;;15.14;72.30;93044.75;5090548;28;20411;-35
2022/09/16 04:57:00;;;;;;;10.32;2.42;;;;;;;15.11;72.93;93048.72;5090069;28;20040;-35
2022/09/16 04:59:26;;;;;;;3.28;3.08;;;;;;;15.14;73.25;93049.56;5090542;28;20039;-35
2022/09/16 05:01:51;;;;;;;5.28;2.63;;;;;;;15.19;73.32;93054.84;5090567;28;20105;-35
2022/09/16 05:04:17;;;;;;;1.70;1.60;;;;;;;15.14;72.95;93063.47;5090206;28;20035;-35
2022/09/16 05:06:43;;;;;;;8.20;3.92;;;;;;;15.19;72.76;93060.41;5090415;28;20024;-35
2022/09/16 05:09:10;;;;;;;7.63;2.53;;;;;;;15.30;72.42;93072.97;5090082;28;20020;-35
2022/09/16 05:11:37;;;;;;;5.93;2.90;;;;;;;15.36;72.78;93073.38;5090155;28;20032;-34
2022/09/16 05:14:05;;;;;;;2.33;1.85;;;;;;;15.23;73.39;93053.66;5090188;28;20028;-35
2022/09/16 05:16:34;;;;;;;1.48;1.38;;;;;;;15.28;73.90;93066.53;5090451;28;20035;-35
2022/09/16 05:19:03;;;;;;;27.60;5.03;;;;;;;15.26;74.85;93066.38;5090144;28;20024;-35
2022/09/16 05:21:30;;;;;;;1.95;1.85;;;;;;;15.35;74.71;93065.63;5094040;28;20139;-35
2022/09/16 05:23:59;;;;;;;3.25;2.95;;;;;;;15.44;74.73;93056.56;5094261;28;20035;-36
2022/09/16 05:26:27;;;;;;;1.23;1.08;;;;;;;15.58;74.91;93049.94;5093611;28;20175;-35
2022/09/16 05:28:53;;;;;;;1.75;1.25;;;;;;;15.41;75.10;93032.69;5093711;28;20036;-35
2022/09/16 05:31:25;;;;;;;0.77;0.77;;;;;;;15.33;75.79;93026.56;5093883;28;20028;-35
2022/09/16 05:33:55;;;;;;;0.95;0.95;;;;;;;15.38;75.80;93037.38;5093668;28;20066;-35
2022/09/16 05:36:21;;;;;;;2.47;2.13;;;;;;;15.48;75.46;93037.38;5093762;28;20024;-35
2022/09/16 05:38:47;;;;;;;1.42;1.33;;;;;;;15.69;74.72;93043.00;5093614;28;20048;-35
2022/09/16 05:41:12;;;;;;;0.75;0.75;;;;;;;16.01;73.65;93033.31;5093643;28;20079;-35
2022/09/16 05:43:38;;;;;;;0.63;0.63;;;;;;;16.25;71.68;93038.47;5093641;28;20028;-35
2022/09/16 05:46:04;;;;;;;2.83;0.57;;;;;;;16.31;72.03;93038.13;5093480;28;20032;-35
2022/09/16 05:48:30;;;;;;;3.65;1.92;;;;;;;16.62;70.78;93031.19;5093621;28;20028;-35
2022/09/16 05:51:04;;;;;;;0.70;0.70;;;;;;;16.72;70.69;93033.88;5075473;28;20034;-35
2022/09/16 05:53:30;;;;;;;0.28;0.28;;;;;;;16.98;70.45;93041.16;5085003;28;20500;-35
2022/09/16 05:55:59;;;;;;;0.40;0.40;;;;;;;17.25;69.59;93035.19;5093441;28;20416;-35
2022/09/16 05:58:26;;;;;;;1.45;1.35;;;;;;;17.51;70.31;93027.75;5093574;28;20057;-35
2022/09/16 06:01:04;;;;;;;0.88;0.88;;;;;;;17.76;70.88;93025.81;5093205;28;20032;-35
2022/09/16 06:03:29;;;;;;;1.63;1.17;;;;;;;17.93;70.73;93033.13;5093162;28;20514;-35
2022/09/16 06:06:02;;;;;;;3.50;1.90;;;;;;;18.05;70.54;93017.81;5093438;28;20024;-35
2022/09/16 06:08:29;;;;;;;0.30;0.30;;;;;;;18.23;71.13;93017.44;5093443;28;20024;-35
2022/09/16 06:10:55;;;;;;;1.02;1.02;;;;;;;18.54;70.87;93015.81;5074909;28;20507;-35
2022/09/16 06:13:20;;;;;;;21.63;2.00;;;;;;;18.85;69.91;93021.81;5093024;28;20053;-35
2022/09/16 06:16:09;;;;;;;0.57;0.50;;;;;;;19.26;67.72;93021.25;5093017;28;20084;-35
2022/09/16 06:18:35;;;;;;;0.57;0.57;;;;;;;19.46;66.50;93014.00;5093026;28;20035;-35
2022/09/16 06:21:09;;;;;;;0.10;0.10;;;;;;;19.60;65.18;93021.09;5093208;28;20043;-35
2022/09/16 06:23:36;;;;;;;0.40;0.40;;;;;;;19.71;64.65;93024.44;5093163;28;20407;-35
2022/09/16 06:26:11;;;;;;;0.75;0.75;;;;;;;19.89;65.46;93023.31;5092174;28;20031;-35
2022/09/16 06:28:36;;;;;;;1.02;1.02;;;;;;;20.06;64.20;93022.81;5074574;28;20035;-35
2022/09/16 06:31:02;;;;;;;0.35;0.35;;;;;;;20.27;63.15;93021.84;5092541;28;20028;-35
2022/09/16 06:33:28;;;;;;;4.40;2.83;;;;;;;20.45;63.02;93022.00;5092740;28;20032;-35
2022/09/16 06:35:55;;;;;;;2.30;1.90;;;;;;;20.66;62.86;93016.09;5093126;28;20024;-35
2022/09/16 06:38:21;;;;;;;1.88;1.67;;;;;;;20.95;61.29;93021.72;5092410;28;20048;-35
2022/09/16 06:40:46;;;;;;;6.32;3.00;;;;;;;21.25;60.44;93023.22;5092875;28;20404;-35
2022/09/16 06:43:12;;;;;;;5.85;1.90;;;;;;;21.51;59.26;93013.22;5092464;28;20024;-35
2022/09/16 06:45:37;;;;;;;3.70;1.50;;;;;;;21.73;59.01;93021.97;5092413;28;20032;-35
2022/09/16 06:48:02;;;;;;;1.48;0.95;;;;;;;21.92;58.81;93015.13;5092049;28;20040;-35
2022/09/16 06:50:28;;;;;;;12.90;2.05;;;;;;;22.27;58.00;93013.19;5092487;28;20066;-35
2022/09/16 06:52:53;;;;;;;6.28;1.15;;;;;;;22.77;56.93;93011.13;5092465;28;20020;-35
2022/09/16 06:55:19;;;;;;;0.52;0.52;;;;;;;23.22;56.03;93005.94;5092496;28;20387;-36
2022/09/16 06:57:44;;;;;;;2.33;1.05;;;;;;;23.56;52.56;93004.53;5092138;28;20023;-35
2022/09/16 07:00:11;;;;;;;8.13;1.65;;;;;;;23.81;49.19;93014.63;5092422;28;20024;-35
2022/09/16 07:02:37;;;;;;;6.75;1.90;;;;;;;24.12;48.16;93022.91;5092487;28;20024;-35
2022/09/16 07:05:02;;;;;;;0.35;0.35;;;;;;;24.51;47.11;93022.94;5092032;28;20028;-36
2022/09/16 07:07:31;;;;;;;0.22;0.22;;;;;;;25.22;46.50;93025.38;5092241;28;20478;-35
2022/09/16 07:09:57;;;;;;;0.80;0.43;;;;;;;25.95;42.93;93031.97;5091993;28;20427;-35
2022/09/16 07:12:23;;;;;;;0.38;0.30;;;;;;;26.68;40.35;93025.63;5091788;28;20035;-36
2022/09/16 07:14:48;;;;;;;0.38;0.38;;;;;;;27.38;39.54;93021.13;5091823;28;20020;-36
2022/09/16 07:17:13;;;;;;;0.70;0.70;;;;;;;27.66;38.58;93025.41;5091997;28;20032;-36
2022/09/16 07:19:41;;;;;;;1.35;0.75;;;;;;;28.14;37.82;93025.81;5091752;28;20411;-36
2022/09/16 07:22:06;;;;;;;0.68;0.68;;;;;;;28.57;37.26;93026.72;5091951;28;20097;-36
2022/09/16 07:24:32;;;;;;;1.02;0.57;;;;;;;28.89;36.10;93021.72;5091627;28;20487;-35
2022/09/16 07:26:57;;;;;;;0.88;0.35;;;;;;;29.43;34.52;93030.53;5091287;28;20024;-36
2022/09/16 07:29:23;;;;;;;1.00;0.60;;;;;;;30.10;33.26;93035.19;5091404;28;20085;-36
2022/09/16 07:31:48;;;;;;;0.13;0.13;;;;;;;30.60;33.07;93033.09;5091598;28;20024;-36
2022/09/16 07:34:14;;;;;;;0.40;0.40;;;;;;;30.88;31.83;93027.03;5091738;28;20032;-36
2022/09/16 07:36:47;;;;;;;0.20;0.20;;;;;;;31.03;31.84;93020.06;5091567;28;20272;-36
2022/09/16 07:39:14;;;;;;;0.98;0.75;;;;;;;31.90;30.22;93021.63;5091335;28;20030;-33
2022/09/16 07:41:42;;;;;;;0.43;0.32;;;;;;;32.16;28.98;93019.69;5091046;28;20028;-33
2022/09/16 07:44:10;;;;;;;0.63;0.55;;;;;;;32.56;28.94;93024.97;5090836;28;20074;-33
2022/09/16 07:46:35;;;;;;;;;;;;;;;33.00;28.71;93023.75;5091793;28;20020;-34
2022/09/16 07:49:03;;;;;;;0.15;0.15;;;;;;;33.36;26.75;93021.72;5091454;28;19938;-34
2022/09/16 07:51:29;;;;;;;0.20;0.20;;;;;;;34.04;25.99;93029.72;5091436;28;20097;-34
2022/09/16 07:54:01;;;;;;;0.30;0.30;;;;;;;34.73;25.60;93018.84;5073184;28;20032;-34
2022/09/16 07:56:28;;;;;;;0.20;0.20;;;;;;;35.41;24.26;93022.88;5091477;28;20050;-34
2022/09/16 07:58:54;;;;;;;0.47;0.47;;;;;;;35.84;22.72;93017.59;5091285;28;20027;-34
2022/09/16 08:01:20;;;;;;;0.20;0.20;;;;;;;36.25;22.61;93021.59;5090946;28;20028;-34
2022/09/16 08:03:46;;;;;;;0.75;0.13;;;;;;;36.23;22.29;93025.19;5090946;28;20024;-34
2022/09/16 08:06:44;;;;;;;0.15;0.15;;;;;;;36.68;22.02;93010.41;5091134;28;20038;-34
2022/09/16 08:09:45;;;;;;;0.60;0.38;;;;;;;37.01;20.52;93017.97;5088804;28;20048;-34
2022/09/16 08:12:15;;;;;;;0.00;0.00;;;;;;;37.28;20.81;93008.97;5090779;28;20035;-34
2022/09/16 08:14:40;;;;;;;0.13;0.13;;;;;;;37.61;20.62;93004.22;5091037;28;20430;-33
2022/09/16 08:17:25;;;;;;;0.30;0.30;;;;;;;38.09;20.36;92991.97;5091035;28;20028;-34
2022/09/16 08:19:50;;;;;;;2.65;0.30;;;;;;;38.61;20.62;92993.94;5090672;28;20565;-34
2022/09/16 08:22:28;;;;;;;3.75;0.77;;;;;;;38.73;19.93;92987.25;5090676;28;20028;-34
2022/09/16 08:24:53;;;;;;;1.85;0.45;;;;;;;38.69;19.88;92990.22;5090276;28;20028;-34
2022/09/16 08:27:19;;;;;;;0.28;0.28;;;;;;;38.96;19.16;92975.97;5090544;28;20089;-34
2022/09/16 08:29:44;;;;;;;0.10;0.10;;;;;;;38.82;18.62;92979.13;5090835;28;20088;-34
2022/09/16 08:32:10;;;;;;;0.22;0.22;;;;;;;37.42;19.84;92977.84;5090606;28;20547;-34
2022/09/16 08:34:37;;;;;;;0.03;0.03;;;;;;;36.22;21.00;92974.16;5090812;28;20050;-33
2022/09/16 08:37:02;;;;;;;0.73;0.65;;;;;;;36.17;21.06;92978.53;5090492;28;20067;-33
2022/09/16 08:39:28;;;;;;;0.20;0.20;;;;;;;36.51;22.21;92986.84;5090828;28;20024;-33
2022/09/16 08:42:30;;;;;;;0.52;0.30;;;;;;;36.94;21.15;92973.44;5090249;28;20427;-34
2022/09/16 08:45:08;;;;;;;0.55;0.38;;;;;;;36.97;20.33;92969.06;5090694;28;20453;-33
2022/09/16 08:47:45;;;;;;;5.45;0.13;;;;;;;37.66;21.11;92968.13;5072367;28;20046;-33
2022/09/16 08:50:32;;;;;;;0.52;0.47;;;;;;;36.77;21.29;92966.41;5072673;28;20040;-34
2022/09/16 08:52:59;;;;;;;0.00;0.00;;;;;;;36.97;21.23;92957.53;5072279;28;20527;-34
2022/09/16 08:55:30;;;;;;;0.73;0.73;;;;;;;37.20;21.85;92952.22;5076651;28;20027;-34
2022/09/16 08:57:55;;;;;;;0.63;0.63;;;;;;;36.43;21.41;92952.41;5076460;28;20175;-34
2022/09/16 09:00:21;;;;;;;0.00;0.00;;;;;;;36.06;22.67;92957.78;5094443;28;20119;-34
2022/09/16 09:02:58;;;;;;;0.93;0.93;;;;;;;35.77;22.90;92959.47;5094367;28;20032;-34
2022/09/16 09:05:32;;;;;;;1.10;0.45;;;;;;;35.75;22.71;92974.56;5059470;28;20510;-34
2022/09/16 09:08:21;;;;;;;0.00;0.00;;;;;;;35.54;23.14;92964.66;5094314;28;20576;-34
2022/09/16 09:10:52;;;;;;;0.00;0.00;;;;;;;34.89;24.50;92969.31;5094825;28;20035;-33
2022/09/16 09:13:47;;;;;;;0.30;0.30;;;;;;;34.57;24.22;92969.41;5076310;28;20114;-34
2022/09/16 09:16:27;;;;;;;0.10;0.10;;;;;;;34.15;24.78;92973.09;5057444;28;20036;-33
2022/09/16 09:19:14;;;;;;;0.63;0.63;;;;;;;34.20;24.79;92965.91;5094114;28;20107;-33
2022/09/16 09:21:45;;;;;;;0.10;0.10;;;;;;;34.10;25.28;92974.53;5094133;28;20090;-34
2022/09/16 09:24:33;;;;;;;1.17;0.55;;;;;;;33.80;24.94;92966.66;5094270;28;20032;-33
2022/09/16 09:27:08;;;;;;;0.15;0.15;;;;;;;33.69;25.67;92961.66;5093744;28;20028;-33
2022/09/16 09:29:58;;;;;;;0.80;0.60;;;;;;;33.42;26.23;92961.59;5076066;28;20047;-33
2022/09/16 09:32:45;;;;;;;1.30;0.22;;;;;;;33.14;26.37;92961.56;5093966;28;20016;-33
2022/09/16 09:35:17;;;;;;;0.25;0.25;;;;;;;33.08;26.66;92969.41;5094144;28;20047;-33
2022/09/16 09:38:04;;;;;;;0.30;0.30;;;;;;;32.74;26.98;92984.31;5075512;28;20094;-33
2022/09/16 09:40:49;;;;;;;3.67;1.88;;;;;;;32.43;27.57;92979.84;5076021;28;20046;-33
2022/09/16 09:43:39;;;;;;;0.17;0.17;;;;;;;32.08;27.74;92976.81;5075822;28;20020;-33
2022/09/16 09:46:15;;;;;;;0.40;0.40;;;;;;;31.75;28.73;92963.00;5042681;28;20047;-33
2022/09/16 09:48:45;;;;;;;0.30;0.30;;;;;;;31.68;29.15;92950.09;5075767;28;20410;-36
2022/09/16 09:51:31;;;;;;;0.20;0.20;;;;;;;31.79;28.67;92969.44;5075655;28;20125;-36
2022/09/16 09:54:19;;;;;;;1.02;0.95;;;;;;;31.73;28.33;92968.69;5075662;28;20085;-36
2022/09/16 09:56:44;;;;;;;0.65;0.65;;;;;;;31.60;28.53;92970.00;5093746;28;20055;-36
2022/09/16 09:59:24;;;;;;;2.08;0.77;;;;;;;31.18;28.29;92971.03;5075355;28;20487;-36
2022/09/16 10:01:57;;;;;;;1.10;0.93;;;;;;;30.98;29.85;92959.44;5075308;28;20038;-35
2022/09/16 10:04:23;;;;;;;3.63;0.52;;;;;;;30.96;29.72;92953.72;5093415;28;20028;-36
2022/09/16 10:06:49;;;;;;;0.93;0.75;;;;;;;30.84;29.64;92942.13;5092871;28;20023;-35
2022/09/16 10:09:15;;;;;;;0.10;0.10;;;;;;;30.71;29.81;92949.84;5075108;28;20137;-35
2022/09/16 10:11:51;;;;;;;4.90;1.75;;;;;;;30.33;30.28;92955.09;5093372;28;20016;-35
2022/09/16 10:14:28;;;;;;;0.10;0.10;;;;;;;30.20;30.24;92952.75;5093689;28;20016;-35
2022/09/16 10:16:54;;;;;;;0.52;0.52;;;;;;;30.01;31.55;92959.63;5092906;28;20020;-36
2022/09/16 10:19:22;;;;;;;1.77;1.60;;;;;;;29.80;31.93;92958.63;5092973;28;20059;-35
2022/09/16 10:21:53;;;;;;;0.43;0.43;;;;;;;29.81;33.31;92965.72;5092965;28;20035;-35
2022/09/16 10:24:35;;;;;;;0.28;0.25;;;;;;;29.69;32.40;92957.00;5093226;28;20028;-35
2022/09/16 10:27:16;;;;;;;1.60;0.73;;;;;;;29.41;32.87;92968.63;5092567;28;20029;-35
2022/09/16 10:29:41;;;;;;;5.38;1.08;;;;;;;29.35;33.13;92970.66;5074686;28;20036;-35
2022/09/16 10:32:08;;;;;;;0.40;0.40;;;;;;;29.06;32.55;92969.44;5092684;28;20039;-35
2022/09/16 10:34:36;;;;;;;0.50;0.50;;;;;;;28.93;33.02;92977.03;5074478;28;20032;-36
2022/09/16 10:37:04;;;;;;;;;;;;;;;28.77;33.65;92976.72;5093243;28;20055;-35
2022/09/16 10:39:31;;;;;;;0.20;0.20;;;;;;;28.56;34.41;92977.72;5092932;28;20363;-35
2022/09/16 10:41:56;;;;;;;0.90;0.70;;;;;;;28.42;33.93;92980.25;5092734;28;20516;-35
2022/09/16 10:44:24;;;;;;;0.10;0.10;;;;;;;28.39;34.38;92975.97;5092467;28;20095;-36
2022/09/16 10:47:17;;;;;;;0.82;0.82;;;;;;;28.23;34.30;92984.84;5092420;28;20028;-36
2022/09/16 10:49:55;;;;;;;1.55;0.80;;;;;;;28.02;34.12;92985.81;5062010;28;20096;-36
2022/09/16 10:52:26;;;;;;;1.45;1.10;;;;;;;27.85;34.79;93005.97;5092326;28;20561;-35
2022/09/16 10:54:53;;;;;;;0.28;0.28;;;;;;;27.38;35.14;93033.22;5092558;28;20457;-36
2022/09/16 10:57:21;;;;;;;0.65;0.65;;;;;;;27.14;35.41;93077.91;5074527;28;20050;-35
2022/09/16 10:59:56;;;;;;;35.05;2.45;;;;;;;26.41;39.22;93143.06;5092450;28;20093;-35
2022/09/16 11:02:47;;;;;;;0.32;0.30;;;;;;;25.25;46.55;93129.31;5092280;28;20030;-35
2022/09/16 11:05:32;;;;;;;1.55;0.85;;;;;;;24.16;47.96;93028.69;5092461;28;20055;-35
2022/09/16 11:08:24;;;;;;;19.90;1.20;;;;;;;24.42;48.92;93144.63;5074287;28;20051;-34
2022/09/16 11:11:05;;;;;;;8.27;1.15;;;;;;;23.84;51.00;93137.41;5050292;28;20036;-35
2022/09/16 11:13:46;;;;;;;1.30;0.82;;;;;;;23.83;51.97;93135.94;5092256;28;20019;-35
2022/09/16 11:16:24;;;;;;;0.25;0.25;;;;;;;23.66;52.11;93148.69;5092076;28;20095;-34
2022/09/16 11:19:06;;;;;;;0.60;0.60;;;;;;;23.40;54.27;93160.94;5073328;28;20024;-35
2022/09/16 11:21:54;;;;;;;0.17;0.17;;;;;;;23.46;54.59;93144.28;5073962;28;20028;-35
2022/09/16 11:25:03;;;;;;;1.83;1.00;;;;;;;23.48;54.88;93133.81;5091755;28;20052;-35
2022/09/16 11:27:38;;;;;;;0.57;0.57;;;;;;;23.62;54.42;93117.50;5091638;28;20070;-35
2022/09/16 11:30:15;;;;;;;2.08;0.55;;;;;;;23.65;54.34;93104.94;5084015;28;20027;-35
2022/09/16 11:32:59;;;;;;;1.80;1.38;;;;;;;23.77;52.77;93101.88;5073586;28;20020;-34
2022/09/16 11:35:36;;;;;;;0.40;0.40;;;;;;;23.74;51.44;93094.69;5091347;28;20111;-35
2022/09/16 11:38:17;;;;;;;0.20;0.20;;;;;;;23.72;52.00;93101.00;5091212;28;20576;-35
2022/09/16 11:40:49;;;;;;;0.50;0.50;;;;;;;24.40;52.60;93090.94;5091426;28;20051;-35
2022/09/16 11:43:22;;;;;;;1.05;0.98;;;;;;;24.71;48.50;93080.09;5091538;28;20088;-35
2022/09/16 11:45:55;;;;;;;0.20;0.10;;;;;;;24.97;48.38;93066.19;5073246;28;20062;-35
2022/09/16 11:48:38;;;;;;;0.15;0.15;;;;;;;25.10;47.81;93065.25;5091144;28;20024;-35
2022/09/16 11:51:04;;;;;;;0.20;0.20;;;;;;;25.45;47.11;93056.56;5073463;28;20028;-35
2022/09/16 11:54:01;;;;;;;0.15;0.10;;;;;;;25.37;46.67;93055.53;5091378;28;20081;-35
2022/09/16 11:56:40;;;;;;;0.13;0.13;;;;;;;25.38;46.48;93052.06;5073177;28;20099;-35